Time;durP1;ratioP1;P1;durP2;ratioP2;P2;SDS_P1;SDS_P2;PMS_P1;PMS_P2;Temp;Humidity;BMP_temperature;BMP_pressure;BME280_temperature;BME280_humidity;BME280_pressure;Samples;Min_cycle;Max_cycle;Signal;HPM_P1;HPM_P2
2023/01/07 07:06:21;;;;;;;5.78;3.45;;;;;;;9.53;100.00;101091.25;5273226;28;20400;-73
2023/01/07 07:08:52;;;;;;;3.22;2.40;;;;;;;9.53;100.00;101087.66;5273973;28;20036;-72
2023/01/07 07:11:24;;;;;;;3.78;2.10;;;;;;;9.55;100.00;101075.22;5277888;28;20056;-72
2023/01/07 07:13:55;;;;;;;2.83;2.10;;;;;;;9.57;100.00;101070.22;5259358;28;20028;-73
2023/01/07 07:16:26;;;;;;;2.08;1.70;;;;;;;9.58;100.00;101071.06;5259088;28;20120;-72
2023/01/07 07:18:58;;;;;;;2.63;1.90;;;;;;;9.59;100.00;101069.97;5256832;28;20025;-73
2023/01/07 07:21:29;;;;;;;1.98;1.80;;;;;;;9.58;100.00;101066.34;5260895;28;20503;-74
2023/01/07 07:24:00;;;;;;;3.33;2.30;;;;;;;9.63;100.00;101061.91;5266894;28;20086;-71
2023/01/07 07:26:32;;;;;;;4.22;1.95;;;;;;;9.62;100.00;101055.56;5280042;28;20043;-72
2023/01/07 07:29:06;;;;;;;2.05;1.70;;;;;;;9.65;100.00;101062.47;5262929;28;20025;-72
2023/01/07 07:31:37;;;;;;;1.73;1.63;;;;;;;9.65;100.00;101062.47;5259228;28;20037;-73
2023/01/07 07:34:10;;;;;;;2.17;1.98;;;;;;;9.68;100.00;101067.44;5262546;28;20028;-71
2023/01/07 07:36:41;;;;;;;2.92;2.20;;;;;;;9.71;100.00;101061.34;5264855;28;20499;-73
2023/01/07 07:39:12;;;;;;;1.95;1.60;;;;;;;9.67;100.00;101060.25;5270932;28;20025;-72
2023/01/07 07:41:44;;;;;;;2.38;1.75;;;;;;;9.66;100.00;101053.88;5258016;28;20044;-72
2023/01/07 07:44:15;;;;;;;3.00;1.50;;;;;;;9.69;100.00;101056.09;5257522;28;20163;-72
2023/01/07 07:46:46;;;;;;;3.25;1.80;;;;;;;9.69;100.00;101052.47;5278918;28;20039;-74
2023/01/07 07:49:18;;;;;;;2.13;1.63;;;;;;;9.72;100.00;101049.19;5272096;28;20036;-74
2023/01/07 07:51:49;;;;;;;2.03;1.67;;;;;;;9.71;100.00;101053.88;5257885;28;20100;-74
2023/01/07 07:54:20;;;;;;;2.10;1.80;;;;;;;9.71;100.00;101045.56;5257247;28;20028;-72
2023/01/07 07:56:52;;;;;;;2.22;1.90;;;;;;;9.72;100.00;101043.66;5271106;28;20040;-73
2023/01/07 07:59:24;;;;;;;2.08;1.60;;;;;;;9.76;100.00;101037.25;5238838;28;20377;-74
2023/01/07 08:01:55;;;;;;;3.67;1.75;;;;;;;9.75;100.00;101038.38;5258235;28;20087;-74
2023/01/07 08:04:27;;;;;;;2.88;1.70;;;;;;;9.76;100.00;101039.19;5257129;28;20195;-74
2023/01/07 08:07:00;;;;;;;2.10;1.90;;;;;;;9.77;100.00;101027.84;5258171;28;20029;-77
2023/01/07 08:09:31;;;;;;;1.90;1.50;;;;;;;9.75;100.00;101023.69;5258867;28;20025;-80
2023/01/07 08:12:03;;;;;;;1.80;1.60;;;;;;;9.75;100.00;101024.50;5258636;28;20033;-80
2023/01/07 08:14:35;;;;;;;1.95;1.60;;;;;;;9.81;100.00;101028.09;5259754;28;20476;-78
2023/01/07 08:17:06;;;;;;;2.08;1.80;;;;;;;9.79;100.00;101024.78;5249326;28;20034;-79
2023/01/07 08:19:38;;;;;;;1.88;1.50;;;;;;;9.84;99.30;101019.22;5244872;28;20034;-79
2023/01/07 08:22:09;;;;;;;2.88;2.33;;;;;;;9.86;99.65;101013.41;5245213;28;20033;-78
2023/01/07 08:24:41;;;;;;;2.30;1.50;;;;;;;9.87;99.45;101024.22;5244125;28;20025;-79
2023/01/07 08:27:12;;;;;;;2.53;1.50;;;;;;;9.89;98.61;101019.22;5244735;28;20064;-78
2023/01/07 08:29:43;;;;;;;1.80;1.70;;;;;;;9.90;98.43;101020.88;5241678;28;20030;-78
2023/01/07 08:32:15;;;;;;;3.25;1.58;;;;;;;9.89;98.28;101007.31;5237993;28;20388;-78
2023/01/07 08:34:47;;;;;;;2.22;1.33;;;;;;;9.98;98.45;101006.44;5245672;28;20587;-78
2023/01/07 08:37:18;;;;;;;3.15;1.90;;;;;;;9.99;98.28;101008.09;5245560;28;20469;-78
2023/01/07 08:39:49;;;;;;;3.58;1.50;;;;;;;9.97;98.27;101007.56;5228909;28;20029;-77
2023/01/07 08:42:24;;;;;;;1.92;1.40;;;;;;;10.11;99.69;100998.66;5236734;28;20021;-77
2023/01/07 08:44:55;;;;;;;5.22;2.92;;;;;;;10.02;97.62;100996.47;5223950;28;20072;-78
2023/01/07 08:47:26;;;;;;;3.63;1.42;;;;;;;10.09;97.00;100995.34;5236768;28;20558;-78
2023/01/07 08:49:58;;;;;;;1.92;1.65;;;;;;;10.11;96.96;100998.66;5242414;28;20041;-77
2023/01/07 08:52:29;;;;;;;2.55;1.40;;;;;;;10.16;96.39;100995.88;5243630;28;20041;-78
2023/01/07 08:55:03;;;;;;;1.95;1.80;;;;;;;10.15;95.58;100999.72;5243611;28;20028;-78
2023/01/07 08:57:35;;;;;;;2.67;1.67;;;;;;;10.19;94.85;100989.75;5243881;28;20430;-72
2023/01/07 09:00:07;;;;;;;1.50;1.40;;;;;;;10.23;95.67;100994.44;5242290;28;20017;-73
2023/01/07 09:02:38;;;;;;;3.83;2.80;;;;;;;10.29;94.63;101000.81;5243302;28;20049;-72
2023/01/07 09:05:10;;;;;;;2.15;1.70;;;;;;;10.33;95.21;100996.38;5242151;28;20065;-73
2023/01/07 09:07:41;;;;;;;1.80;1.60;;;;;;;10.35;94.38;100993.31;5242055;28;20451;-72
2023/01/07 09:10:13;;;;;;;5.05;1.60;;;;;;;10.39;94.54;100984.13;5243278;28;20041;-72
2023/01/07 09:12:44;;;;;;;1.50;1.40;;;;;;;10.42;92.84;100974.44;5243561;28;20017;-73
2023/01/07 09:15:15;;;;;;;2.00;1.80;;;;;;;10.40;92.77;100974.69;5242336;28;20026;-73
2023/01/07 09:17:47;;;;;;;1.83;1.50;;;;;;;10.42;92.76;100974.44;5242932;28;20039;-75
2023/01/07 09:20:18;;;;;;;1.63;1.27;;;;;;;10.42;92.20;100966.94;5242369;28;20105;-73
2023/01/07 09:22:50;;;;;;;2.33;1.33;;;;;;;10.42;92.08;100966.09;5239902;28;20472;-73
2023/01/07 09:25:21;;;;;;;1.52;1.42;;;;;;;10.43;92.31;100970.53;5242216;28;20083;-79
2023/01/07 09:27:52;;;;;;;1.45;1.35;;;;;;;10.41;92.02;100965.28;5242995;28;20021;-78
2023/01/07 09:30:24;;;;;;;1.58;1.30;;;;;;;10.48;92.44;100959.44;5241316;28;20033;-77
2023/01/07 09:32:55;;;;;;;1.85;1.52;;;;;;;10.47;90.91;100962.47;5246299;28;20341;-78
2023/01/07 09:35:26;;;;;;;2.38;1.55;;;;;;;10.52;91.19;100954.13;5248206;28;20021;-78
2023/01/07 09:37:57;;;;;;;1.83;1.63;;;;;;;10.58;92.01;100955.75;5236771;28;20022;-76
2023/01/07 09:40:35;;;;;;;2.05;1.50;;;;;;;10.57;89.70;100940.25;5234723;28;20025;-76
2023/01/07 09:43:28;;;;;;;19.65;17.10;;;;;;;10.64;91.62;100947.13;5240716;28;20079;-76
2023/01/07 09:46:02;;;;;;;2.67;1.63;;;;;;;10.59;90.78;100946.34;5241425;28;20112;-73
2023/01/07 09:48:41;;;;;;;1.52;1.42;;;;;;;10.60;88.74;100934.09;5241440;28;20029;-76
2023/01/07 09:51:23;;;;;;;2.08;1.33;;;;;;;10.69;90.85;100935.16;5241026;28;20037;-78
2023/01/07 09:53:59;;;;;;;1.45;1.20;;;;;;;10.61;89.59;100931.06;5241455;28;20037;-76
2023/01/07 09:56:32;;;;;;;;;;;;;;;10.75;91.29;100928.44;5244837;28;20143;-78
2023/01/07 09:59:05;;;;;;;1.98;1.55;;;;;;;10.63;88.64;100922.44;5244591;28;20016;-76
2023/01/07 10:01:57;;;;;;;2.67;1.20;;;;;;;10.71;89.27;100921.00;5242708;28;20468;-75
2023/01/07 10:05:01;;;;;;;6.65;4.32;;;;;;;10.80;91.08;100905.41;5241161;28;20053;-76
2023/01/07 10:07:56;;;;;;;1.58;1.45;;;;;;;10.77;89.11;100906.81;5242568;28;20388;-77
2023/01/07 10:10:43;;;;;;;3.00;1.30;;;;;;;10.92;91.78;100902.25;5242088;28;20068;-80
2023/01/07 10:13:37;;;;;;;1.20;1.10;;;;;;;10.86;88.96;100898.69;5242358;28;20469;-80
2023/01/07 10:16:21;;;;;;;2.75;1.50;;;;;;;10.85;89.05;100886.75;5239549;28;20396;-82
2023/01/07 10:19:05;;;;;;;1.42;1.20;;;;;;;10.88;88.31;100875.06;5241589;28;20029;-77
2023/01/07 10:21:46;;;;;;;2.15;1.15;;;;;;;10.87;88.26;100867.88;5243730;28;20081;-74
2023/01/07 10:24:26;;;;;;;4.60;3.95;;;;;;;10.87;87.59;100867.06;5243044;28;20033;-80
2023/01/07 10:27:06;;;;;;;2.03;1.73;;;;;;;10.89;87.01;100867.59;5242757;28;20029;-78
2023/01/07 10:29:55;;;;;;;1.85;1.58;;;;;;;10.95;87.03;100857.28;5241666;28;20025;-77
2023/01/07 10:32:31;;;;;;;1.83;1.40;;;;;;;11.01;87.42;100861.66;5241700;28;20485;-78
2023/01/07 10:35:11;;;;;;;1.38;1.23;;;;;;;10.96;85.84;100845.88;5241425;28;20025;-69
2023/01/07 10:37:43;;;;;;;4.28;1.85;;;;;;;11.07;87.63;100841.06;5258409;28;20025;-75
2023/01/07 10:40:39;;;;;;;1.60;1.13;;;;;;;11.03;84.26;100831.66;5245218;28;20077;-74
2023/01/07 10:43:44;;;;;;;1.95;1.77;;;;;;;11.03;84.17;100831.66;5242160;28;20158;-74
2023/01/07 10:46:53;;;;;;;1.50;1.08;;;;;;;11.04;83.92;100833.31;5238688;28;20033;-77
2023/01/07 10:49:33;;;;;;;1.42;1.27;;;;;;;11.03;83.50;100820.56;5224941;28;20030;-77
2023/01/07 10:52:50;;;;;;;1.40;1.30;;;;;;;11.16;85.73;100817.09;5233363;28;20124;-79
2023/01/07 10:55:27;;;;;;;1.92;1.10;;;;;;;11.09;83.23;100808.28;5205046;28;20477;-81
2023/01/07 10:57:59;;;;;;;8.55;7.68;;;;;;;11.09;82.69;100797.16;5241877;28;20028;-80
2023/01/07 11:00:31;;;;;;;2.08;1.70;;;;;;;11.10;82.04;100798.84;5241224;28;20022;-79
2023/01/07 11:03:02;;;;;;;2.85;1.42;;;;;;;11.09;81.12;100799.94;5241597;28;20025;-79
2023/01/07 11:05:37;;;;;;;1.40;1.20;;;;;;;11.07;80.34;100796.66;5241968;28;20053;-79
2023/01/07 11:08:28;;;;;;;1.27;1.17;;;;;;;11.11;80.16;100794.94;5222030;28;20477;-79
2023/01/07 11:10:59;;;;;;;2.75;2.20;;;;;;;11.08;80.53;100784.44;5233055;28;20101;-80
2023/01/07 11:13:34;;;;;;;2.03;1.38;;;;;;;11.09;80.22;100791.63;5236805;28;20112;-80
2023/01/07 11:16:10;;;;;;;1.58;1.48;;;;;;;11.23;84.30;100780.66;5240798;28;20029;-81
2023/01/07 11:19:01;;;;;;;1.88;1.33;;;;;;;11.21;79.92;100777.34;5244441;28;20029;-78
2023/01/07 11:21:44;;;;;;;1.40;1.30;;;;;;;11.18;80.05;100773.22;5243718;28;20061;-78
2023/01/07 11:24:18;;;;;;;2.38;2.13;;;;;;;11.19;78.62;100777.63;5225099;28;21931;-77
2023/01/07 11:26:50;;;;;;;4.22;1.50;;;;;;;11.16;80.05;100767.13;5227938;28;20042;-79
2023/01/07 11:29:38;;;;;;;2.22;1.30;;;;;;;11.23;80.17;100764.81;5246151;28;20027;-77
2023/01/07 11:32:26;;;;;;;1.42;1.20;;;;;;;11.22;79.10;100745.66;5254832;28;20017;-75
2023/01/07 11:35:04;;;;;;;1.73;1.40;;;;;;;11.21;79.14;100735.72;5259047;28;20009;-78
2023/01/07 11:37:47;;;;;;;3.13;2.83;;;;;;;11.22;77.85;100740.97;5243345;28;20534;-80
2023/01/07 11:40:18;;;;;;;7.57;5.47;;;;;;;11.33;81.11;100736.09;5237499;28;20022;-80
2023/01/07 11:43:20;;;;;;;2.05;1.42;;;;;;;11.32;79.74;100735.28;5240794;28;20033;-78
2023/01/07 11:45:58;;;;;;;1.70;1.45;;;;;;;11.29;78.26;100724.75;5217299;28;20072;-81
2023/01/07 11:48:33;;;;;;;2.10;1.83;;;;;;;11.26;77.70;100711.47;5247724;28;20039;-79
2023/01/07 11:51:10;;;;;;;1.70;1.60;;;;;;;11.26;77.93;100711.47;5246457;28;20025;-79
2023/01/07 11:53:52;;;;;;;2.08;1.40;;;;;;;11.35;77.94;100708.88;5246981;28;20025;-75
2023/01/07 11:56:29;;;;;;;2.15;1.50;;;;;;;11.34;77.50;100698.06;5248251;28;20033;-81
2023/01/07 11:59:25;;;;;;;1.30;1.13;;;;;;;11.37;77.71;100691.91;5243070;28;20079;-80
2023/01/07 12:01:58;;;;;;;;;;;;;;;11.49;78.03;100679.22;5243155;28;20108;-81
2023/01/07 12:04:36;;;;;;;2.20;1.75;;;;;;;11.36;76.97;100681.94;5241507;28;19924;-80
2023/01/07 12:07:14;;;;;;;1.90;1.50;;;;;;;11.39;76.96;100673.00;5243014;28;20033;-80
2023/01/07 12:09:45;;;;;;;1.75;1.63;;;;;;;11.49;78.16;100672.84;5241884;28;20033;-80
2023/01/07 12:12:32;;;;;;;1.60;1.50;;;;;;;11.50;75.72;100660.59;5241468;28;20025;-78
2023/01/07 12:15:26;;;;;;;2.03;1.58;;;;;;;11.52;76.67;100661.13;5244547;28;20083;-78
2023/01/07 12:18:06;;;;;;;4.03;3.20;;;;;;;11.50;76.91;100660.59;5243222;28;20182;-78
2023/01/07 12:20:43;;;;;;;2.45;1.50;;;;;;;11.52;77.52;100655.59;5243689;28;20090;-78
2023/01/07 12:23:26;;;;;;;2.20;1.50;;;;;;;11.56;76.03;100648.31;5243497;28;20026;-77
2023/01/07 12:26:42;;;;;;;2.60;1.70;;;;;;;11.64;77.31;100652.38;5242890;28;20489;-79
2023/01/07 12:29:50;;;;;;;2.47;1.60;;;;;;;11.66;77.09;100647.34;5213568;28;20038;-77
2023/01/07 12:32:50;;;;;;;2.42;1.73;;;;;;;11.71;76.81;100636.97;5252673;28;20037;-77
2023/01/07 12:35:26;;;;;;;1.75;1.55;;;;;;;11.67;74.70;100633.13;5264317;28;20045;-81
2023/01/07 12:38:05;;;;;;;1.95;1.75;;;;;;;11.64;74.55;100639.28;5243407;28;20102;-78
2023/01/07 12:40:46;;;;;;;2.15;1.80;;;;;;;11.63;75.75;100628.47;5242681;28;20021;-79
2023/01/07 12:43:36;;;;;;;17.65;15.80;;;;;;;11.68;76.42;100625.63;5238223;28;20037;-78
2023/01/07 12:46:15;;;;;;;2.88;2.35;;;;;;;11.72;76.38;100610.00;5240684;28;20018;-79
2023/01/07 12:49:09;;;;;;;2.25;1.80;;;;;;;11.79;75.94;100598.50;5243210;28;20029;-77
2023/01/07 12:51:44;;;;;;;2.10;1.73;;;;;;;11.75;76.01;100615.75;5245163;28;20037;-78
2023/01/07 12:54:51;;;;;;;1.90;1.65;;;;;;;11.75;76.00;100595.50;5243107;28;20372;-79
2023/01/07 12:57:27;;;;;;;2.53;2.13;;;;;;;11.68;75.47;100586.72;5240894;28;20384;-78
2023/01/07 13:00:20;;;;;;;2.55;2.05;;;;;;;11.74;76.20;100589.13;5241898;28;20542;-79
2023/01/07 13:03:09;;;;;;;2.30;1.95;;;;;;;11.70;75.23;100573.38;5241644;28;20472;-80
2023/01/07 13:05:42;;;;;;;3.00;1.85;;;;;;;11.62;75.69;100571.28;5238359;28;20466;-82
2023/01/07 13:08:42;;;;;;;9.40;8.52;;;;;;;11.63;76.09;100565.44;5242696;28;20029;-79
2023/01/07 13:14:33;;;;;;;1.90;1.70;;;;;;;11.55;75.29;100557.78;5241707;28;20468;-80
2023/01/07 13:17:25;;;;;;;2.38;1.88;;;;;;;11.55;75.99;100555.00;5239162;28;20108;-79
2023/01/07 13:19:57;;;;;;;3.95;2.28;;;;;;;11.54;76.51;100554.19;5239382;28;20017;-75
2023/01/07 13:22:34;;;;;;;1.70;1.60;;;;;;;11.59;75.63;100555.22;5241040;28;20029;-75
2023/01/07 13:25:32;;;;;;;2.53;2.00;;;;;;;11.49;76.09;100543.16;5242086;28;20527;-75
2023/01/07 13:28:06;;;;;;;3.05;2.35;;;;;;;11.49;75.78;100536.78;5236834;28;20047;-81
2023/01/07 13:31:12;;;;;;;2.05;1.73;;;;;;;11.53;77.75;100529.50;5242160;28;20472;-79
2023/01/07 13:33:59;;;;;;;3.20;2.03;;;;;;;11.51;77.19;100523.41;5241300;28;20484;-77
2023/01/07 13:37:07;;;;;;;2.83;2.17;;;;;;;11.55;77.46;100510.56;5242181;28;20087;-77
2023/01/07 13:39:57;;;;;;;2.75;2.13;;;;;;;11.49;77.38;100512.59;5238241;28;20398;-79
2023/01/07 13:42:36;;;;;;;2.25;1.92;;;;;;;11.49;77.41;100495.13;5239220;28;20029;-80
2023/01/07 13:45:18;;;;;;;2.22;2.03;;;;;;;11.44;77.61;100495.22;5241082;28;20287;-80
2023/01/07 13:47:53;;;;;;;2.10;1.90;;;;;;;11.47;77.74;100497.38;5240792;28;20047;-79
2023/01/07 13:50:53;;;;;;;2.35;1.92;;;;;;;11.47;78.09;100492.63;5239332;28;20061;-80
2023/01/07 13:53:25;;;;;;;2.47;2.15;;;;;;;11.44;79.13;100487.69;5237325;28;20369;-76
2023/01/07 13:56:29;;;;;;;8.43;7.30;;;;;;;11.45;77.99;100480.19;5237222;28;20104;-79
2023/01/07 13:59:01;;;;;;;4.15;3.30;;;;;;;11.43;78.00;100474.13;5239405;28;20014;-78
2023/01/07 14:01:52;;;;;;;3.33;2.90;;;;;;;11.44;78.34;100467.44;5240764;28;20035;-79
2023/01/07 14:04:45;;;;;;;2.42;2.20;;;;;;;11.45;79.10;100461.59;5238234;28;20059;-77
2023/01/07 14:07:18;;;;;;;2.50;2.30;;;;;;;11.46;78.21;100462.41;5238059;28;20068;-79
2023/01/07 14:09:55;;;;;;;2.83;2.30;;;;;;;11.48;78.11;100462.94;5239078;28;20018;-78
2023/01/07 14:13:01;;;;;;;4.00;2.00;;;;;;;11.57;79.43;100472.19;5241448;28;20021;-78
2023/01/07 14:15:53;;;;;;;2.95;2.30;;;;;;;11.59;79.05;100478.28;5240728;28;20029;-79
2023/01/07 14:19:03;;;;;;;2.88;2.33;;;;;;;11.52;78.05;100461.19;5238191;28;20025;-79
2023/01/07 14:21:53;;;;;;;2.65;2.45;;;;;;;11.57;78.93;100458.31;5234714;28;20037;-77
2023/01/07 14:24:45;;;;;;;1.83;1.65;;;;;;;11.54;78.38;100447.81;5234431;28;20071;-79
2023/01/07 14:27:44;;;;;;;2.92;1.95;;;;;;;11.58;78.26;100462.75;5236435;28;20105;-78
2023/01/07 14:30:22;;;;;;;2.70;2.05;;;;;;;11.51;77.51;100454.81;5239122;28;20408;-75
2023/01/07 14:33:01;;;;;;;2.80;2.03;;;;;;;11.51;78.36;100437.34;5238718;28;20033;-78
2023/01/07 14:35:38;;;;;;;2.50;2.10;;;;;;;11.45;77.53;100452.41;5240390;28;20025;-78
2023/01/07 14:38:30;;;;;;;2.83;2.58;;;;;;;11.48;77.65;100444.31;5237293;28;20026;-78
2023/01/07 14:41:02;;;;;;;2.00;1.80;;;;;;;11.46;77.46;100451.31;5237270;28;20487;-80
2023/01/07 14:43:39;;;;;;;2.33;1.95;;;;;;;11.45;76.56;100449.66;5239857;28;20033;-79
2023/01/07 14:46:22;;;;;;;2.38;1.70;;;;;;;11.38;76.89;100441.72;5236779;28;20064;-80
2023/01/07 14:49:02;;;;;;;14.05;12.38;;;;;;;11.35;77.66;100438.72;5239364;28;20018;-78
2023/01/07 14:51:58;;;;;;;2.85;2.55;;;;;;;11.36;77.42;100441.22;5239313;28;20034;-74
2023/01/07 14:55:20;;;;;;;2.75;2.30;;;;;;;11.32;78.15;100431.81;5236789;28;20101;-86
2023/01/07 14:58:19;;;;;;;2.80;2.15;;;;;;;11.34;78.13;100437.09;5253583;28;20009;-83
2023/01/07 15:01:04;;;;;;;2.83;1.90;;;;;;;11.23;76.85;100419.78;5252632;28;20029;-80
2023/01/07 15:04:13;;;;;;;2.33;2.08;;;;;;;11.22;78.45;100418.13;5241365;28;20349;-79
2023/01/07 15:06:45;;;;;;;2.13;1.92;;;;;;;11.17;77.75;100410.75;5232355;28;20045;-78
2023/01/07 15:18:12;;;;;;;2.05;1.85;;;;;;;11.12;78.13;100399.72;5239478;28;20396;-81
2023/01/07 15:21:05;;;;;;;2.42;2.08;;;;;;;11.17;78.61;100404.34;5239554;28;20112;-80
2023/01/07 15:23:57;;;;;;;2.15;1.90;;;;;;;11.11;79.26;100417.47;5239164;28;20179;-75
2023/01/07 15:26:49;;;;;;;2.63;2.10;;;;;;;11.12;79.29;100390.56;5238882;28;20043;-74
2023/01/07 15:29:41;;;;;;;2.63;1.63;;;;;;;11.07;78.84;100394.25;5243364;28;20033;-75
2023/01/07 15:32:31;;;;;;;4.53;1.95;;;;;;;11.08;78.85;100396.72;5238455;28;20033;-75
2023/01/07 15:35:16;;;;;;;2.58;2.22;;;;;;;11.07;78.48;100394.25;5237624;28;20065;-74
2023/01/07 15:37:49;;;;;;;4.10;2.70;;;;;;;11.04;79.26;100380.97;5241582;28;20479;-74
2023/01/07 15:40:24;;;;;;;2.45;1.92;;;;;;;11.04;78.58;100381.81;5243247;28;20033;-78
2023/01/07 15:42:57;;;;;;;2.45;2.10;;;;;;;11.00;80.00;100379.94;5243538;28;20017;-78
2023/01/07 15:45:28;;;;;;;2.00;1.80;;;;;;;10.98;79.18;100379.44;5244533;28;20021;-81
2023/01/07 15:48:11;;;;;;;2.25;2.05;;;;;;;10.98;80.42;100365.56;5244056;28;20036;-80
2023/01/07 15:50:44;;;;;;;2.70;2.15;;;;;;;10.95;80.14;100374.50;5241057;28;20022;-79
2023/01/07 15:53:24;;;;;;;4.13;3.67;;;;;;;10.92;80.38;100364.81;5244395;28;20423;-79
2023/01/07 15:56:04;;;;;;;3.38;2.08;;;;;;;10.95;79.96;100355.88;5241999;28;20132;-74
2023/01/07 15:58:44;;;;;;;2.67;2.40;;;;;;;10.98;81.85;100369.16;5242701;28;20029;-80
2023/01/07 16:01:23;;;;;;;2.40;2.15;;;;;;;10.94;81.14;100362.56;5242408;28;20425;-77
2023/01/07 16:03:56;;;;;;;3.58;2.30;;;;;;;10.91;81.37;100363.16;5239088;28;20020;-77
2023/01/07 16:06:30;;;;;;;2.70;2.40;;;;;;;10.94;81.75;100351.47;5242966;28;20025;-78
2023/01/07 16:09:12;;;;;;;2.83;2.33;;;;;;;10.87;82.15;100348.25;5241807;28;20036;-78
2023/01/07 16:11:43;;;;;;;2.25;1.92;;;;;;;10.88;81.96;100342.41;5242771;28;20030;-77
2023/01/07 16:14:18;;;;;;;2.97;2.47;;;;;;;10.90;81.87;100344.06;5244259;28;20388;-77
2023/01/07 16:17:08;;;;;;;45.80;39.13;;;;;;;10.87;83.00;100337.97;5244194;28;20021;-76
2023/01/07 16:19:40;;;;;;;5.93;3.83;;;;;;;10.83;83.77;100339.72;5244032;28;20029;-75
2023/01/07 16:22:17;;;;;;;3.83;2.20;;;;;;;10.82;83.04;100340.84;5244034;28;20030;-73
2023/01/07 16:24:52;;;;;;;2.10;1.90;;;;;;;10.79;82.96;100337.88;5242104;28;20585;-73
2023/01/07 16:27:29;;;;;;;5.47;2.30;;;;;;;10.73;84.11;100339.88;5242721;28;20362;-71
2023/01/07 16:30:01;;;;;;;2.47;2.03;;;;;;;10.76;83.93;100328.19;5241222;28;20048;-71
2023/01/07 16:32:32;;;;;;;2.67;2.28;;;;;;;10.73;84.52;100333.50;5242630;28;20024;-72
2023/01/07 16:35:12;;;;;;;3.03;2.60;;;;;;;10.76;83.79;100333.75;5242419;28;20022;-72
2023/01/07 16:37:45;;;;;;;2.65;2.33;;;;;;;10.74;83.50;100329.63;5240937;28;20025;-74
